sensor_id;sensor_type;location;lat;lon;timestamp;pressure;altitude;pressure_sealevel;temperature;humidity
74633;BME280;63139;52.018;8.552;2024-02-28T00:01:04;100866.47;;;0.09;100.00
74633;BME280;63139;52.018;8.552;2024-02-28T00:03:32;100867.31;;;0.10;100.00
74633;BME280;63139;52.018;8.552;2024-02-28T00:06:01;100870.84;;;0.09;100.00
74633;BME280;63139;52.018;8.552;2024-02-28T00:08:30;100868.34;;;0.07;100.00
74633;BME280;63139;52.018;8.552;2024-02-28T00:10:58;100857.19;;;0.05;100.00
74633;BME280;63139;52.018;8.552;2024-02-28T00:13:26;100868.53;;;0.04;100.00
74633;BME280;63139;52.018;8.552;2024-02-28T00:15:54;100867.84;;;0.00;100.00
74633;BME280;63139;52.018;8.552;2024-02-28T00:18:22;100863.59;;;-0.01;100.00
74633;BME280;63139;52.018;8.552;2024-02-28T00:20:53;100873.25;;;-0.03;100.00
74633;BME280;63139;52.018;8.552;2024-02-28T00:23:22;100874.19;;;-0.04;100.00
74633;BME280;63139;52.018;8.552;2024-02-28T00:25:51;100876.88;;;-0.05;100.00
74633;BME280;63139;52.018;8.552;2024-02-28T00:28:20;100873.50;;;-0.07;100.00
74633;BME280;63139;52.018;8.552;2024-02-28T00:30:48;100877.16;;;-0.10;100.00
74633;BME280;63139;52.018;8.552;2024-02-28T00:33:16;100870.34;;;-0.12;100.00
74633;BME280;63139;52.018;8.552;2024-02-28T00:35:44;100873.97;;;-0.15;100.00
74633;BME280;63139;52.018;8.552;2024-02-28T00:38:12;100878.44;;;-0.17;100.00
74633;BME280;63139;52.018;8.552;2024-02-28T00:40:40;100885.50;;;-0.19;100.00
74633;BME280;63139;52.018;8.552;2024-02-28T00:43:09;100882.88;;;-0.19;100.00
74633;BME280;63139;52.018;8.552;2024-02-28T00:45:37;100874.59;;;-0.25;100.00
74633;BME280;63139;52.018;8.552;2024-02-28T00:48:06;100883.34;;;-0.26;100.00
74633;BME280;63139;52.018;8.552;2024-02-28T00:50:34;100887.69;;;-0.27;100.00
74633;BME280;63139;52.018;8.552;2024-02-28T00:53:02;100873.22;;;-0.31;100.00
74633;BME280;63139;52.018;8.552;2024-02-28T00:55:30;100890.50;;;-0.30;100.00
74633;BME280;63139;52.018;8.552;2024-02-28T00:57:58;100894.94;;;-0.32;100.00
74633;BME280;63139;52.018;8.552;2024-02-28T01:00:27;100899.31;;;-0.32;100.00
74633;BME280;63139;52.018;8.552;2024-02-28T01:02:55;100897.72;;;-0.35;100.00
74633;BME280;63139;52.018;8.552;2024-02-28T01:05:24;100897.72;;;-0.35;100.00
74633;BME280;63139;52.018;8.552;2024-02-28T01:07:52;100893.53;;;-0.37;100.00
74633;BME280;63139;52.018;8.552;2024-02-28T01:10:21;100889.16;;;-0.37;100.00
74633;BME280;63139;52.018;8.552;2024-02-28T01:12:49;100885.81;;;-0.39;100.00
74633;BME280;63139;52.018;8.552;2024-02-28T01:15:17;100888.41;;;-0.39;100.00
74633;BME280;63139;52.018;8.552;2024-02-28T01:17:47;100902.41;;;-0.42;100.00
74633;BME280;63139;52.018;8.552;2024-02-28T01:20:15;100891.19;;;-0.42;100.00
74633;BME280;63139;52.018;8.552;2024-02-28T01:22:43;100889.50;;;-0.43;100.00
74633;BME280;63139;52.018;8.552;2024-02-28T01:25:11;100894.69;;;-0.43;100.00
74633;BME280;63139;52.018;8.552;2024-02-28T01:27:39;100884.41;;;-0.45;100.00
74633;BME280;63139;52.018;8.552;2024-02-28T01:30:08;100877.41;;;-0.44;100.00
74633;BME280;63139;52.018;8.552;2024-02-28T01:32:35;100875.66;;;-0.44;100.00
74633;BME280;63139;52.018;8.552;2024-02-28T01:35:07;100879.22;;;-0.45;100.00
74633;BME280;63139;52.018;8.552;2024-02-28T01:37:36;100876.63;;;-0.45;100.00
74633;BME280;63139;52.018;8.552;2024-02-28T01:40:04;100872.34;;;-0.46;100.00
74633;BME280;63139;52.018;8.552;2024-02-28T01:42:33;100871.50;;;-0.46;100.00
74633;BME280;63139;52.018;8.552;2024-02-28T01:45:00;100875.84;;;-0.47;100.00
74633;BME280;63139;52.018;8.552;2024-02-28T01:47:28;100871.66;;;-0.49;100.00
74633;BME280;63139;52.018;8.552;2024-02-28T01:49:57;100863.94;;;-0.51;100.00
74633;BME280;63139;52.018;8.552;2024-02-28T01:52:27;100866.53;;;-0.51;100.00
74633;BME280;63139;52.018;8.552;2024-02-28T01:54:55;100876.38;;;-0.56;100.00
74633;BME280;63139;52.018;8.552;2024-02-28T01:57:23;100886.78;;;-0.56;100.00
74633;BME280;63139;52.018;8.552;2024-02-28T01:59:52;100878.22;;;-0.58;100.00
74633;BME280;63139;52.018;8.552;2024-02-28T02:02:21;100882.56;;;-0.58;100.00
74633;BME280;63139;52.018;8.552;2024-02-28T02:04:49;100868.84;;;-0.60;100.00
74633;BME280;63139;52.018;8.552;2024-02-28T02:07:19;100861.91;;;-0.60;100.00
74633;BME280;63139;52.018;8.552;2024-02-28T02:09:49;100856.69;;;-0.60;100.00
74633;BME280;63139;52.018;8.552;2024-02-28T02:12:16;100853.97;;;-0.58;100.00
74633;BME280;63139;52.018;8.552;2024-02-28T02:14:47;100865.31;;;-0.59;100.00
74633;BME280;63139;52.018;8.552;2024-02-28T02:17:17;100861.13;;;-0.62;100.00
74633;BME280;63139;52.018;8.552;2024-02-28T02:19:45;100863.91;;;-0.65;100.00
74633;BME280;63139;52.018;8.552;2024-02-28T02:22:13;100859.53;;;-0.64;100.00
74633;BME280;63139;52.018;8.552;2024-02-28T02:24:43;100860.44;;;-0.65;100.00
74633;BME280;63139;52.018;8.552;2024-02-28T02:27:11;100866.56;;;-0.66;100.00
74633;BME280;63139;52.018;8.552;2024-02-28T02:29:39;100864.16;;;-0.69;100.00
74633;BME280;63139;52.018;8.552;2024-02-28T02:32:07;100871.13;;;-0.70;100.00
74633;BME280;63139;52.018;8.552;2024-02-28T02:34:35;100866.78;;;-0.69;100.00
74633;BME280;63139;52.018;8.552;2024-02-28T02:37:03;100873.66;;;-0.68;100.00
74633;BME280;63139;52.018;8.552;2024-02-28T02:39:31;100867.69;;;-0.70;100.00
74633;BME280;63139;52.018;8.552;2024-02-28T02:42:01;100867.69;;;-0.70;100.00
74633;BME280;63139;52.018;8.552;2024-02-28T02:44:29;100859.22;;;-0.74;100.00
74633;BME280;63139;52.018;8.552;2024-02-28T02:46:57;100857.22;;;-0.69;100.00
74633;BME280;63139;52.018;8.552;2024-02-28T02:49:25;100864.16;;;-0.69;100.00
74633;BME280;63139;52.018;8.552;2024-02-28T02:51:53;100870.22;;;-0.69;100.00
74633;BME280;63139;52.018;8.552;2024-02-28T02:54:20;100877.81;;;-0.66;100.00
74633;BME280;63139;52.018;8.552;2024-02-28T02:56:48;100873.44;;;-0.65;100.00
74633;BME280;63139;52.018;8.552;2024-02-28T02:59:18;100881.38;;;-0.67;100.00
74633;BME280;63139;52.018;8.552;2024-02-28T03:01:49;100883.84;;;-0.65;100.00
74633;BME280;63139;52.018;8.552;2024-02-28T03:04:17;100896.00;;;-0.66;100.00
74633;BME280;63139;52.018;8.552;2024-02-28T03:06:45;100898.72;;;-0.67;100.00
74633;BME280;63139;52.018;8.552;2024-02-28T03:09:13;100900.56;;;-0.69;100.00
74633;BME280;63139;52.018;8.552;2024-02-28T03:11:41;100893.59;;;-0.69;100.00
74633;BME280;63139;52.018;8.552;2024-02-28T03:14:09;100891.75;;;-0.67;100.00
74633;BME280;63139;52.018;8.552;2024-02-28T03:16:42;100895.16;;;-0.66;100.00
74633;BME280;63139;52.018;8.552;2024-02-28T03:19:10;100877.09;;;-0.68;100.00
74633;BME280;63139;52.018;8.552;2024-02-28T03:21:38;100887.97;;;-0.61;100.00
74633;BME280;63139;52.018;8.552;2024-02-28T03:24:06;100886.00;;;-0.58;100.00
74633;BME280;63139;52.018;8.552;2024-02-28T03:26:34;100888.53;;;-0.56;100.00
74633;BME280;63139;52.018;8.552;2024-02-28T03:29:02;100898.94;;;-0.56;100.00
74633;BME280;63139;52.018;8.552;2024-02-28T03:31:30;100894.56;;;-0.56;100.00
74633;BME280;63139;52.018;8.552;2024-02-28T03:33:59;100888.44;;;-0.55;100.00
74633;BME280;63139;52.018;8.552;2024-02-28T03:36:28;100892.81;;;-0.55;100.00
74633;BME280;63139;52.018;8.552;2024-02-28T03:38:56;100888.53;;;-0.56;100.00
74633;BME280;63139;52.018;8.552;2024-02-28T03:41:24;100884.25;;;-0.57;100.00
74633;BME280;63139;52.018;8.552;2024-02-28T03:43:52;100889.38;;;-0.56;100.00
74633;BME280;63139;52.018;8.552;2024-02-28T03:46:20;100890.13;;;-0.54;100.00
74633;BME280;63139;52.018;8.552;2024-02-28T03:48:49;100890.13;;;-0.54;100.00
74633;BME280;63139;52.018;8.552;2024-02-28T03:51:18;100888.38;;;-0.53;100.00
74633;BME280;63139;52.018;8.552;2024-02-28T03:53:46;100887.53;;;-0.54;100.00
74633;BME280;63139;52.018;8.552;2024-02-28T03:56:21;100891.13;;;-0.56;100.00
74633;BME280;63139;52.018;8.552;2024-02-28T03:58:52;100894.66;;;-0.57;100.00
74633;BME280;63139;52.018;8.552;2024-02-28T04:01:20;100904.28;;;-0.59;100.00
74633;BME280;63139;52.018;8.552;2024-02-28T04:03:48;100901.69;;;-0.59;100.00
74633;BME280;63139;52.018;8.552;2024-02-28T04:06:17;100901.69;;;-0.59;100.00
74633;BME280;63139;52.018;8.552;2024-02-28T04:08:46;100908.56;;;-0.58;100.00
74633;BME280;63139;52.018;8.552;2024-02-28T04:11:14;100910.94;;;-0.54;100.00
74633;BME280;63139;52.018;8.552;2024-02-28T04:13:42;100906.47;;;-0.52;100.00
74633;BME280;63139;52.018;8.552;2024-02-28T04:16:09;100919.38;;;-0.50;100.00
74633;BME280;63139;52.018;8.552;2024-02-28T04:18:37;100913.03;;;-0.45;100.00
74633;BME280;63139;52.018;8.552;2024-02-28T04:21:05;100918.94;;;-0.43;100.00
74633;BME280;63139;52.018;8.552;2024-02-28T04:23:35;100916.25;;;-0.41;100.00
74633;BME280;63139;52.018;8.552;2024-02-28T04:26:04;100921.19;;;-0.36;100.00
74633;BME280;63139;52.018;8.552;2024-02-28T04:28:32;100928.00;;;-0.34;100.00
74633;BME280;63139;52.018;8.552;2024-02-28T04:31:00;100928.66;;;-0.30;100.00
74633;BME280;63139;52.018;8.552;2024-02-28T04:33:28;100926.91;;;-0.30;100.00
74633;BME280;63139;52.018;8.552;2024-02-28T04:35:56;100927.63;;;-0.28;100.00
74633;BME280;63139;52.018;8.552;2024-02-28T04:38:24;100927.56;;;-0.26;100.00
74633;BME280;63139;52.018;8.552;2024-02-28T04:40:53;100935.09;;;-0.22;100.00
74633;BME280;63139;52.018;8.552;2024-02-28T04:43:21;100942.16;;;-0.24;100.00
74633;BME280;63139;52.018;8.552;2024-02-28T04:45:49;100937.78;;;-0.23;100.00
74633;BME280;63139;52.018;8.552;2024-02-28T04:48:17;100941.72;;;-0.16;100.00
74633;BME280;63139;52.018;8.552;2024-02-28T04:50:45;100938.19;;;-0.15;100.00
74633;BME280;63139;52.018;8.552;2024-02-28T04:53:13;100946.72;;;-0.13;100.00
74633;BME280;63139;52.018;8.552;2024-02-28T04:55:40;100949.16;;;-0.10;100.00
74633;BME280;63139;52.018;8.552;2024-02-28T04:58:10;100950.84;;;-0.09;100.00
74633;BME280;63139;52.018;8.552;2024-02-28T05:00:38;100957.63;;;-0.07;100.00
74633;BME280;63139;52.018;8.552;2024-02-28T05:03:06;100954.00;;;-0.04;100.00
74633;BME280;63139;52.018;8.552;2024-02-28T05:05:34;100959.06;;;-0.01;100.00
74633;BME280;63139;52.018;8.552;2024-02-28T05:08:02;100963.22;;;0.02;100.00
74633;BME280;63139;52.018;8.552;2024-02-28T05:10:31;100959.53;;;0.06;100.00
74633;BME280;63139;52.018;8.552;2024-02-28T05:13:00;100963.53;;;0.11;100.00
74633;BME280;63139;52.018;8.552;2024-02-28T05:15:32;100966.59;;;0.18;100.00
74633;BME280;63139;52.018;8.552;2024-02-28T05:18:00;100972.97;;;0.28;100.00
74633;BME280;63139;52.018;8.552;2024-02-28T05:20:28;100976.50;;;0.41;100.00
74633;BME280;63139;52.018;8.552;2024-02-28T05:22:56;100979.50;;;0.49;100.00
74633;BME280;63139;52.018;8.552;2024-02-28T05:25:23;100989.16;;;0.61;100.00
74633;BME280;63139;52.018;8.552;2024-02-28T05:27:51;100993.66;;;0.73;100.00
74633;BME280;63139;52.018;8.552;2024-02-28T05:30:19;100999.22;;;0.82;100.00
74633;BME280;63139;52.018;8.552;2024-02-28T05:32:49;100999.97;;;0.98;100.00
74633;BME280;63139;52.018;8.552;2024-02-28T05:35:17;101003.50;;;1.11;100.00
74633;BME280;63139;52.018;8.552;2024-02-28T05:37:44;101009.72;;;1.23;100.00
74633;BME280;63139;52.018;8.552;2024-02-28T05:40:13;101007.19;;;1.35;100.00
74633;BME280;63139;52.018;8.552;2024-02-28T05:42:41;101011.53;;;1.49;100.00
74633;BME280;63139;52.018;8.552;2024-02-28T05:45:10;101014.22;;;1.62;100.00
74633;BME280;63139;52.018;8.552;2024-02-28T05:47:39;101012.31;;;1.78;100.00
74633;BME280;63139;52.018;8.552;2024-02-28T05:50:09;101014.09;;;1.90;100.00
74633;BME280;63139;52.018;8.552;2024-02-28T05:52:37;101010.69;;;2.02;100.00
74633;BME280;63139;52.018;8.552;2024-02-28T05:55:06;101005.72;;;2.12;100.00
74633;BME280;63139;52.018;8.552;2024-02-28T05:57:34;101011.88;;;2.23;100.00
74633;BME280;63139;52.018;8.552;2024-02-28T06:00:02;101013.06;;;2.32;100.00
74633;BME280;63139;52.018;8.552;2024-02-28T06:02:39;101018.50;;;2.42;100.00
74633;BME280;63139;52.018;8.552;2024-02-28T06:05:09;101019.56;;;2.52;100.00
74633;BME280;63139;52.018;8.552;2024-02-28T06:07:37;101022.06;;;2.53;100.00
74633;BME280;63139;52.018;8.552;2024-02-28T06:10:06;101023.53;;;2.57;100.00
74633;BME280;63139;52.018;8.552;2024-02-28T06:12:34;101026.56;;;2.64;100.00
74633;BME280;63139;52.018;8.552;2024-02-28T06:15:04;101028.78;;;2.70;100.00
74633;BME280;63139;52.018;8.552;2024-02-28T06:17:33;101031.91;;;2.75;100.00
74633;BME280;63139;52.018;8.552;2024-02-28T06:20:01;101035.16;;;2.79;100.00
74633;BME280;63139;52.018;8.552;2024-02-28T06:22:31;101030.53;;;2.82;100.00
74633;BME280;63139;52.018;8.552;2024-02-28T06:24:59;101037.25;;;2.86;100.00
74633;BME280;63139;52.018;8.552;2024-02-28T06:27:27;101033.59;;;2.89;100.00
74633;BME280;63139;52.018;8.552;2024-02-28T06:29:55;101043.00;;;2.91;100.00
74633;BME280;63139;52.018;8.552;2024-02-28T06:32:23;101046.16;;;2.96;100.00
74633;BME280;63139;52.018;8.552;2024-02-28T06:34:51;101040.78;;;2.98;100.00
74633;BME280;63139;52.018;8.552;2024-02-28T06:37:20;101044.03;;;3.01;100.00
74633;BME280;63139;52.018;8.552;2024-02-28T06:39:49;101046.44;;;3.04;100.00
74633;BME280;63139;52.018;8.552;2024-02-28T06:42:17;101049.59;;;3.09;100.00
74633;BME280;63139;52.018;8.552;2024-02-28T06:44:45;101054.47;;;3.14;100.00
74633;BME280;63139;52.018;8.552;2024-02-28T06:47:13;101047.97;;;3.20;100.00
74633;BME280;63139;52.018;8.552;2024-02-28T06:49:41;101046.00;;;3.23;100.00
74633;BME280;63139;52.018;8.552;2024-02-28T06:52:09;101048.28;;;3.28;100.00
74633;BME280;63139;52.018;8.552;2024-02-28T06:54:37;101052.16;;;3.35;100.00
74633;BME280;63139;52.018;8.552;2024-02-28T06:57:06;101051.31;;;3.34;100.00
74633;BME280;63139;52.018;8.552;2024-02-28T06:59:34;101052.69;;;3.40;100.00
74633;BME280;63139;52.018;8.552;2024-02-28T07:02:03;101052.34;;;3.44;100.00
74633;BME280;63139;52.018;8.552;2024-02-28T07:04:31;101057.56;;;3.44;100.00
74633;BME280;63139;52.018;8.552;2024-02-28T07:06:59;101055.91;;;3.43;100.00
74633;BME280;63139;52.018;8.552;2024-02-28T07:09:27;101059.16;;;3.47;100.00
74633;BME280;63139;52.018;8.552;2024-02-28T07:11:57;101062.47;;;3.49;100.00
74633;BME280;63139;52.018;8.552;2024-02-28T07:14:27;101061.81;;;3.58;100.00
74633;BME280;63139;52.018;8.552;2024-02-28T07:16:54;101070.09;;;3.65;100.00
74633;BME280;63139;52.018;8.552;2024-02-28T07:19:23;101077.09;;;3.64;100.00
74633;BME280;63139;52.018;8.552;2024-02-28T07:21:50;101083.69;;;3.70;100.00
74633;BME280;63139;52.018;8.552;2024-02-28T07:24:18;101084.41;;;3.72;100.00
74633;BME280;63139;52.018;8.552;2024-02-28T07:26:46;101084.50;;;3.83;100.00
74633;BME280;63139;52.018;8.552;2024-02-28T07:29:16;101080.69;;;3.87;100.00
74633;BME280;63139;52.018;8.552;2024-02-28T07:31:45;101084.03;;;3.89;100.00
74633;BME280;63139;52.018;8.552;2024-02-28T07:34:13;101087.50;;;3.89;100.00
74633;BME280;63139;52.018;8.552;2024-02-28T07:36:42;101087.13;;;4.07;100.00
74633;BME280;63139;52.018;8.552;2024-02-28T07:39:10;101094.31;;;4.16;100.00
74633;BME280;63139;52.018;8.552;2024-02-28T07:41:39;101096.16;;;4.26;100.00
74633;BME280;63139;52.018;8.552;2024-02-28T07:44:08;101105.97;;;4.36;100.00
74633;BME280;63139;52.018;8.552;2024-02-28T07:46:37;101090.38;;;4.45;100.00
74633;BME280;63139;52.018;8.552;2024-02-28T07:49:06;101100.28;;;4.53;100.00
74633;BME280;63139;52.018;8.552;2024-02-28T07:51:34;101097.63;;;4.65;100.00
74633;BME280;63139;52.018;8.552;2024-02-28T07:54:02;101093.56;;;4.73;100.00
74633;BME280;63139;52.018;8.552;2024-02-28T07:56:30;101094.91;;;4.78;100.00
74633;BME280;63139;52.018;8.552;2024-02-28T07:58:58;101100.28;;;4.88;100.00
74633;BME280;63139;52.018;8.552;2024-02-28T08:01:26;101097.56;;;5.00;100.00
74633;BME280;63139;52.018;8.552;2024-02-28T08:03:54;101101.97;;;5.00;100.00
74633;BME280;63139;52.018;8.552;2024-02-28T08:06:24;101094.94;;;5.00;100.00
74633;BME280;63139;52.018;8.552;2024-02-28T08:08:52;101093.28;;;5.11;100.00
74633;BME280;63139;52.018;8.552;2024-02-28T08:11:20;101096.28;;;5.17;100.00
74633;BME280;63139;52.018;8.552;2024-02-28T08:13:48;101098.78;;;5.19;100.00
74633;BME280;63139;52.018;8.552;2024-02-28T08:16:15;101101.63;;;5.16;100.00
74633;BME280;63139;52.018;8.552;2024-02-28T08:18:43;101104.25;;;5.16;100.00
74633;BME280;63139;52.018;8.552;2024-02-28T08:21:11;101105.31;;;5.13;100.00
74633;BME280;63139;52.018;8.552;2024-02-28T08:23:41;101107.63;;;5.18;100.00
74633;BME280;63139;52.018;8.552;2024-02-28T08:26:09;101110.81;;;5.21;100.00
74633;BME280;63139;52.018;8.552;2024-02-28T08:28:37;101111.66;;;5.22;100.00
74633;BME280;63139;52.018;8.552;2024-02-28T08:31:05;101117.53;;;5.25;100.00
74633;BME280;63139;52.018;8.552;2024-02-28T08:33:33;101124.66;;;5.23;100.00
74633;BME280;63139;52.018;8.552;2024-02-28T08:36:01;101126.09;;;5.27;100.00
74633;BME280;63139;52.018;8.552;2024-02-28T08:38:29;101119.78;;;5.30;100.00
74633;BME280;63139;52.018;8.552;2024-02-28T08:40:59;101117.88;;;5.32;100.00
74633;BME280;63139;52.018;8.552;2024-02-28T08:43:27;101129.06;;;5.34;100.00
74633;BME280;63139;52.018;8.552;2024-02-28T08:45:55;101124.34;;;5.39;100.00
74633;BME280;63139;52.018;8.552;2024-02-28T08:48:23;101130.78;;;5.46;100.00
74633;BME280;63139;52.018;8.552;2024-02-28T08:50:51;101139.22;;;5.50;100.00
74633;BME280;63139;52.018;8.552;2024-02-28T08:53:19;101134.22;;;5.58;100.00
74633;BME280;63139;52.018;8.552;2024-02-28T08:55:47;101134.72;;;5.63;100.00
74633;BME280;63139;52.018;8.552;2024-02-28T08:58:17;101145.69;;;5.68;100.00
74633;BME280;63139;52.018;8.552;2024-02-28T09:00:45;101145.09;;;5.64;100.00
74633;BME280;63139;52.018;8.552;2024-02-28T09:03:14;101138.75;;;5.67;100.00
74633;BME280;63139;52.018;8.552;2024-02-28T09:05:42;101142.22;;;5.67;100.00
74633;BME280;63139;52.018;8.552;2024-02-28T09:08:10;101137.56;;;5.60;100.00
74633;BME280;63139;52.018;8.552;2024-02-28T09:10:40;101137.94;;;5.66;100.00
74633;BME280;63139;52.018;8.552;2024-02-28T09:13:08;101137.81;;;5.68;100.00
74633;BME280;63139;52.018;8.552;2024-02-28T09:15:40;101132.06;;;5.74;100.00
74633;BME280;63139;52.018;8.552;2024-02-28T09:18:08;101132.06;;;5.85;100.00
74633;BME280;63139;52.018;8.552;2024-02-28T09:20:36;101129.31;;;5.86;100.00
74633;BME280;63139;52.018;8.552;2024-02-28T09:23:04;101145.44;;;5.93;100.00
74633;BME280;63139;52.018;8.552;2024-02-28T09:25:33;101143.78;;;5.92;100.00
74633;BME280;63139;52.018;8.552;2024-02-28T09:28:02;101152.59;;;6.02;100.00
74633;BME280;63139;52.018;8.552;2024-02-28T09:30:31;101153.44;;;6.03;100.00
74633;BME280;63139;52.018;8.552;2024-02-28T09:33:12;101152.47;;;6.04;100.00
74633;BME280;63139;52.018;8.552;2024-02-28T09:35:41;101150.69;;;6.04;100.00
74633;BME280;63139;52.018;8.552;2024-02-28T09:38:09;101151.88;;;6.11;100.00
74633;BME280;63139;52.018;8.552;2024-02-28T09:40:38;101160.00;;;6.19;100.00
74633;BME280;63139;52.018;8.552;2024-02-28T09:43:15;101158.66;;;6.25;100.00
74633;BME280;63139;52.018;8.552;2024-02-28T09:45:43;101154.00;;;6.29;100.00
74633;BME280;63139;52.018;8.552;2024-02-28T09:48:16;101152.41;;;6.37;100.00
74633;BME280;63139;52.018;8.552;2024-02-28T09:50:45;101155.13;;;6.47;100.00
74633;BME280;63139;52.018;8.552;2024-02-28T09:53:13;101166.31;;;6.60;100.00
74633;BME280;63139;52.018;8.552;2024-02-28T09:55:41;101171.09;;;6.66;100.00
74633;BME280;63139;52.018;8.552;2024-02-28T09:58:11;101173.94;;;6.63;100.00
74633;BME280;63139;52.018;8.552;2024-02-28T10:00:39;101175.75;;;6.62;100.00
74633;BME280;63139;52.018;8.552;2024-02-28T10:03:12;101175.31;;;6.57;100.00
74633;BME280;63139;52.018;8.552;2024-02-28T10:05:42;101176.34;;;6.66;100.00
74633;BME280;63139;52.018;8.552;2024-02-28T10:08:11;101169.09;;;6.79;100.00
74633;BME280;63139;52.018;8.552;2024-02-28T10:10:45;101175.53;;;6.86;100.00
74633;BME280;63139;52.018;8.552;2024-02-28T10:13:13;101172.78;;;6.88;100.00
74633;BME280;63139;52.018;8.552;2024-02-28T10:15:43;101174.69;;;6.86;100.00
74633;BME280;63139;52.018;8.552;2024-02-28T10:18:11;101174.31;;;6.90;100.00
74633;BME280;63139;52.018;8.552;2024-02-28T10:20:39;101167.09;;;7.04;100.00
74633;BME280;63139;52.018;8.552;2024-02-28T10:23:08;101164.50;;;7.13;100.00
74633;BME280;63139;52.018;8.552;2024-02-28T10:25:42;101163.84;;;7.21;100.00
74633;BME280;63139;52.018;8.552;2024-02-28T10:28:22;101157.69;;;7.31;100.00
74633;BME280;63139;52.018;8.552;2024-02-28T10:30:50;101166.19;;;7.45;100.00
74633;BME280;63139;52.018;8.552;2024-02-28T10:33:18;101170.94;;;7.51;100.00
74633;BME280;63139;52.018;8.552;2024-02-28T10:35:51;101169.31;;;7.59;100.00
74633;BME280;63139;52.018;8.552;2024-02-28T10:38:22;101170.72;;;7.63;100.00
74633;BME280;63139;52.018;8.552;2024-02-28T10:40:51;101176.44;;;7.68;100.00
74633;BME280;63139;52.018;8.552;2024-02-28T10:43:20;101178.78;;;7.62;100.00
74633;BME280;63139;52.018;8.552;2024-02-28T10:45:49;101175.19;;;7.63;100.00
74633;BME280;63139;52.018;8.552;2024-02-28T10:48:38;101177.16;;;7.70;100.00
74633;BME280;63139;52.018;8.552;2024-02-28T10:51:08;101176.22;;;7.81;100.00
74633;BME280;63139;52.018;8.552;2024-02-28T10:53:41;101166.25;;;7.85;100.00
74633;BME280;63139;52.018;8.552;2024-02-28T10:56:11;101173.63;;;7.91;100.00
74633;BME280;63139;52.018;8.552;2024-02-28T10:58:45;101170.03;;;8.01;100.00
74633;BME280;63139;52.018;8.552;2024-02-28T11:01:17;101172.69;;;8.11;100.00
74633;BME280;63139;52.018;8.552;2024-02-28T11:03:48;101169.81;;;8.24;100.00
74633;BME280;63139;52.018;8.552;2024-02-28T11:06:17;101173.97;;;8.26;100.00
74633;BME280;63139;52.018;8.552;2024-02-28T11:08:49;101183.06;;;8.33;100.00
74633;BME280;63139;52.018;8.552;2024-02-28T11:11:21;101176.25;;;8.40;100.00
74633;BME280;63139;52.018;8.552;2024-02-28T11:13:53;101173.38;;;8.43;100.00
74633;BME280;63139;52.018;8.552;2024-02-28T11:16:29;101177.81;;;8.43;100.00
74633;BME280;63139;52.018;8.552;2024-02-28T11:18:57;101174.31;;;8.42;100.00
74633;BME280;63139;52.018;8.552;2024-02-28T11:21:26;101172.25;;;8.55;100.00
74633;BME280;63139;52.018;8.552;2024-02-28T11:23:58;101172.22;;;8.46;100.00
74633;BME280;63139;52.018;8.552;2024-02-28T11:26:27;101184.47;;;8.47;100.00
74633;BME280;63139;52.018;8.552;2024-02-28T11:28:55;101180.16;;;8.46;100.00
74633;BME280;63139;52.018;8.552;2024-02-28T11:31:23;101168.09;;;8.43;100.00
74633;BME280;63139;52.018;8.552;2024-02-28T11:33:51;101178.34;;;8.46;100.00
74633;BME280;63139;52.018;8.552;2024-02-28T11:36:19;101162.50;;;8.46;100.00
74633;BME280;63139;52.018;8.552;2024-02-28T11:38:48;101168.50;;;8.48;100.00
74633;BME280;63139;52.018;8.552;2024-02-28T11:41:26;101174.75;;;8.57;100.00
74633;BME280;63139;52.018;8.552;2024-02-28T11:43:55;101172.81;;;8.59;99.35
74633;BME280;63139;52.018;8.552;2024-02-28T11:46:23;101172.50;;;8.52;99.96
74633;BME280;63139;52.018;8.552;2024-02-28T11:48:52;101166.72;;;8.59;100.00
74633;BME280;63139;52.018;8.552;2024-02-28T11:51:20;101166.56;;;8.70;100.00
74633;BME280;63139;52.018;8.552;2024-02-28T11:53:48;101166.97;;;8.65;100.00
74633;BME280;63139;52.018;8.552;2024-02-28T11:56:16;101161.56;;;8.76;99.63
74633;BME280;63139;52.018;8.552;2024-02-28T11:58:52;101164.19;;;8.76;97.81
74633;BME280;63139;52.018;8.552;2024-02-28T12:01:38;101159.88;;;8.75;98.85
74633;BME280;63139;52.018;8.552;2024-02-28T12:04:06;101150.59;;;8.81;97.92
74633;BME280;63139;52.018;8.552;2024-02-28T12:06:36;101154.16;;;8.89;98.77
74633;BME280;63139;52.018;8.552;2024-02-28T12:09:06;101159.19;;;8.92;99.29
74633;BME280;63139;52.018;8.552;2024-02-28T12:11:36;101156.28;;;8.86;99.92
74633;BME280;63139;52.018;8.552;2024-02-28T12:14:06;101157.66;;;8.71;97.92
74633;BME280;63139;52.018;8.552;2024-02-28T12:16:36;101153.94;;;8.73;98.81
74633;BME280;63139;52.018;8.552;2024-02-28T12:19:07;101152.53;;;8.79;98.78
74633;BME280;63139;52.018;8.552;2024-02-28T12:21:36;101148.75;;;8.91;98.62
74633;BME280;63139;52.018;8.552;2024-02-28T12:24:05;101143.19;;;9.04;95.95
74633;BME280;63139;52.018;8.552;2024-02-28T12:26:36;101137.03;;;9.13;95.79
74633;BME280;63139;52.018;8.552;2024-02-28T12:29:05;101144.28;;;9.11;95.24
74633;BME280;63139;52.018;8.552;2024-02-28T12:31:34;101140.66;;;9.12;94.93
74633;BME280;63139;52.018;8.552;2024-02-28T12:34:02;101138.44;;;9.07;94.52
74633;BME280;63139;52.018;8.552;2024-02-28T12:36:31;101142.63;;;8.90;96.50
74633;BME280;63139;52.018;8.552;2024-02-28T12:39:00;101137.78;;;8.95;96.79
74633;BME280;63139;52.018;8.552;2024-02-28T12:41:29;101134.56;;;9.02;96.71
74633;BME280;63139;52.018;8.552;2024-02-28T12:43:57;101117.72;;;9.12;95.96
74633;BME280;63139;52.018;8.552;2024-02-28T12:46:26;101119.81;;;9.18;94.61
74633;BME280;63139;52.018;8.552;2024-02-28T12:48:54;101125.63;;;9.22;95.81
74633;BME280;63139;52.018;8.552;2024-02-28T12:51:36;101120.91;;;9.25;93.46
74633;BME280;63139;52.018;8.552;2024-02-28T12:54:05;101110.72;;;9.30;94.97
74633;BME280;63139;52.018;8.552;2024-02-28T12:56:35;101103.03;;;9.47;93.06